Time;durP1;ratioP1;P1;durP2;ratioP2;P2;SDS_P1;SDS_P2;PMS_P1;PMS_P2;Temp;Humidity;BMP_temperature;BMP_pressure;BME280_temperature;BME280_humidity;BME280_pressure;Samples;Min_cycle;Max_cycle;Signal;HPM_P1;HPM_P2
2023/05/08 00:01:15;;;;;;;13.05;9.30;;;14.40;99.20;;;;;;4590350;19;20002;-23
2023/05/08 00:02:46;;;;;;;13.77;10.20;;;14.30;99.10;;;;;;4590131;19;20017;-23
2023/05/08 00:04:19;;;;;;;14.52;9.40;;;14.40;99.10;;;;;;4589088;19;20011;-23
2023/05/08 00:05:50;;;;;;;13.73;9.30;;;14.30;99.00;;;;;;4589900;19;20390;-23
2023/05/08 00:07:23;;;;;;;13.17;9.50;;;14.30;99.00;;;;;;4590407;19;20026;-23
2023/05/08 00:08:56;;;;;;;12.80;8.20;;;14.30;99.00;;;;;;4591207;19;20330;-23
2023/05/08 00:10:29;;;;;;;12.83;9.13;;;14.30;99.10;;;;;;4590440;19;20009;-23
2023/05/08 00:12:00;;;;;;;13.68;9.90;;;14.40;99.10;;;;;;4590157;19;20366;-23
2023/05/08 00:13:32;;;;;;;13.40;9.35;;;14.30;99.00;;;;;;4589063;19;20020;-23
2023/05/08 00:15:03;;;;;;;11.35;9.00;;;14.30;98.80;;;;;;4590265;19;20485;-23
2023/05/08 00:16:36;;;;;;;11.63;9.20;;;14.30;98.80;;;;;;4590145;19;20469;-23
2023/05/08 00:18:08;;;;;;;;;;;14.30;98.70;;;;;;4590477;19;20423;-23
2023/05/08 00:19:39;;;;;;;12.90;9.73;;;14.30;98.70;;;;;;4590744;19;19918;-23
2023/05/08 00:21:10;;;;;;;13.63;10.80;;;14.30;98.60;;;;;;4588888;19;20018;-23
2023/05/08 00:22:41;;;;;;;15.77;11.23;;;14.30;98.60;;;;;;4589634;19;20031;-23
2023/05/08 00:24:14;;;;;;;14.93;10.17;;;14.30;98.70;;;;;;4590288;19;20015;-23
2023/05/08 00:25:48;;;;;;;16.00;9.87;;;14.30;98.70;;;;;;4590417;19;20010;-23
2023/05/08 00:27:20;;;;;;;14.20;9.47;;;14.30;98.70;;;;;;4590044;19;20006;-23
2023/05/08 00:28:52;;;;;;;12.87;9.47;;;14.30;98.80;;;;;;4589723;19;20011;-23
2023/05/08 00:30:24;;;;;;;13.52;9.40;;;14.30;98.70;;;;;;4590323;19;20035;-23
2023/05/08 00:31:55;;;;;;;16.02;11.27;;;14.30;98.70;;;;;;4590841;19;20005;-23
2023/05/08 00:33:28;;;;;;;14.83;10.43;;;14.30;98.50;;;;;;4588926;19;20015;-23
2023/05/08 00:35:01;;;;;;;15.67;10.50;;;14.30;98.40;;;;;;4589702;19;20015;-23
2023/05/08 00:36:32;;;;;;;15.52;10.70;;;14.20;98.30;;;;;;4589881;19;20014;-23
2023/05/08 00:38:04;;;;;;;16.30;10.10;;;14.20;98.30;;;;;;4590501;19;20011;-23
2023/05/08 00:39:35;;;;;;;19.00;11.10;;;14.30;98.20;;;;;;4589706;19;20018;-23
2023/05/08 00:41:07;;;;;;;15.63;10.53;;;14.20;98.20;;;;;;4587327;19;20017;-23
2023/05/08 00:42:38;;;;;;;16.20;9.98;;;14.30;98.30;;;;;;4586780;19;20023;-23
2023/05/08 00:44:11;;;;;;;17.03;10.70;;;14.20;98.20;;;;;;4589498;19;19998;-24
2023/05/08 00:45:42;;;;;;;15.45;10.65;;;14.20;98.20;;;;;;4588603;19;20088;-23
2023/05/08 00:47:14;;;;;;;14.95;9.57;;;14.20;98.20;;;;;;4589289;19;20020;-23
2023/05/08 00:48:47;;;;;;;16.03;10.70;;;14.20;98.40;;;;;;4588539;19;20018;-23
2023/05/08 00:50:18;;;;;;;14.93;10.23;;;14.20;98.30;;;;;;4588345;19;20485;-23
2023/05/08 00:51:51;;;;;;;14.88;9.80;;;14.20;98.20;;;;;;4588461;19;20022;-23
2023/05/08 00:53:22;;;;;;;18.17;9.80;;;14.30;98.20;;;;;;4587106;19;20029;-23
2023/05/08 00:54:54;;;;;;;15.57;10.10;;;14.20;98.10;;;;;;4588120;19;20011;-23
2023/05/08 00:56:26;;;;;;;17.33;10.63;;;14.20;98.10;;;;;;4588465;19;20519;-23
2023/05/08 00:57:57;;;;;;;14.52;9.13;;;14.20;97.90;;;;;;4591485;19;20014;-23
2023/05/08 00:59:28;;;;;;;16.15;10.15;;;14.20;97.90;;;;;;4594235;19;20445;-23
2023/05/08 01:01:02;;;;;;;15.67;10.33;;;14.20;97.90;;;;;;4594156;19;20011;-23
2023/05/08 01:02:36;;;;;;;16.10;9.97;;;14.20;97.90;;;;;;4594014;19;20035;-23
2023/05/08 01:04:07;;;;;;;15.20;10.75;;;14.20;97.90;;;;;;4593130;19;20031;-23
2023/05/08 01:05:39;;;;;;;16.08;12.15;;;14.20;98.00;;;;;;4594172;19;20043;-23
2023/05/08 01:07:11;;;;;;;18.40;12.07;;;14.20;98.00;;;;;;4593266;19;20006;-23
2023/05/08 01:08:44;;;;;;;16.60;11.57;;;14.20;97.80;;;;;;4592793;19;20103;-23
2023/05/08 01:10:17;;;;;;;17.20;11.73;;;14.20;97.90;;;;;;4592701;19;20011;-23
2023/05/08 01:12:27;;;;;;;15.37;10.63;;;14.20;97.90;;;;;;4593762;19;20031;-23
2023/05/08 01:14:19;;;;;;;16.33;11.07;;;14.20;97.80;;;;;;4594294;19;20013;-23
2023/05/08 01:15:53;;;;;;;18.33;11.67;;;14.20;97.70;;;;;;4593723;19;20439;-23
2023/05/08 01:17:44;;;;;;;17.90;12.37;;;14.20;97.70;;;;;;4591890;19;20097;-23
2023/05/08 01:19:26;;;;;;;20.45;11.85;;;14.20;97.80;;;;;;4592025;19;20021;-23
2023/05/08 01:21:27;;;;;;;18.52;13.13;;;14.20;97.70;;;;;;4590226;19;20089;-23
2023/05/08 01:23:21;;;;;;;18.73;12.82;;;14.10;97.70;;;;;;4589825;19;20015;-23
2023/05/08 01:24:55;;;;;;;23.83;13.27;;;14.10;97.80;;;;;;4589940;19;20098;-23
2023/05/08 01:27:00;;;;;;;17.63;12.67;;;14.20;97.90;;;;;;4590095;19;20007;-23
2023/05/08 01:28:56;;;;;;;19.47;12.47;;;14.20;98.10;;;;;;4589993;19;20036;-23
2023/05/08 01:30:47;;;;;;;20.33;13.10;;;14.10;97.80;;;;;;4590260;19;19999;-23
2023/05/08 01:32:29;;;;;;;19.53;12.70;;;14.20;97.60;;;;;;4589703;19;20078;-23
2023/05/08 01:34:20;;;;;;;20.67;13.80;;;14.20;97.70;;;;;;4589349;19;20026;-23
2023/05/08 01:35:58;;;;;;;19.60;13.52;;;14.10;97.60;;;;;;4589583;19;20019;-23
2023/05/08 01:37:58;;;;;;;19.73;12.57;;;14.10;97.60;;;;;;4589587;19;20022;-23
2023/05/08 01:39:43;;;;;;;19.53;13.13;;;14.10;97.80;;;;;;4590036;19;20054;-23
2023/05/08 01:41:29;;;;;;;16.80;11.83;;;14.10;97.40;;;;;;4589673;19;19999;-23
2023/05/08 01:43:31;;;;;;;14.77;11.30;;;14.10;97.50;;;;;;4588663;19;20360;-23
2023/05/08 01:45:06;;;;;;;15.87;10.93;;;14.10;97.40;;;;;;4589406;19;20060;-23
2023/05/08 01:46:38;;;;;;;17.90;10.47;;;14.10;97.30;;;;;;4589991;19;20003;-23
2023/05/08 01:48:11;;;;;;;16.08;11.52;;;14.10;97.20;;;;;;4589270;19;20014;-23
2023/05/08 01:49:46;;;;;;;17.60;11.80;;;14.10;97.20;;;;;;4589431;19;20010;-23
2023/05/08 01:51:21;;;;;;;16.23;10.57;;;14.10;97.00;;;;;;4590206;19;19998;-23
2023/05/08 01:52:57;;;;;;;14.47;11.07;;;14.10;96.90;;;;;;4588164;19;20022;-23
2023/05/08 01:54:35;;;;;;;14.23;10.33;;;14.10;97.00;;;;;;4589311;19;20483;-23
2023/05/08 01:56:14;;;;;;;16.83;10.50;;;14.10;97.00;;;;;;4589699;19;20014;-23
2023/05/08 01:57:48;;;;;;;16.00;10.13;;;14.10;97.10;;;;;;4589907;19;20007;-23
2023/05/08 01:59:21;;;;;;;14.57;10.50;;;14.10;97.00;;;;;;4589240;19;20010;-23
2023/05/08 02:00:52;;;;;;;15.13;10.90;;;14.10;97.30;;;;;;4589891;19;20070;-23
2023/05/08 02:02:24;;;;;;;17.30;10.68;;;14.00;96.80;;;;;;4590730;19;20013;-23
2023/05/08 02:03:56;;;;;;;16.27;10.87;;;14.00;96.70;;;;;;4590534;19;20010;-23
2023/05/08 02:05:27;;;;;;;18.80;11.30;;;14.00;96.70;;;;;;4590377;19;20011;-23
2023/05/08 02:06:59;;;;;;;14.93;9.98;;;14.00;96.80;;;;;;4591100;19;20329;-23
2023/05/08 02:08:30;;;;;;;14.80;10.90;;;14.00;96.60;;;;;;4590573;19;20007;-23
2023/05/08 02:10:03;;;;;;;15.75;11.60;;;14.00;96.80;;;;;;4588695;19;20050;-23
2023/05/08 02:11:35;;;;;;;17.93;10.70;;;14.00;96.90;;;;;;4590584;19;20037;-23
2023/05/08 02:13:09;;;;;;;16.40;11.30;;;14.00;96.60;;;;;;4588723;19;20074;-23
2023/05/08 02:14:40;;;;;;;14.73;11.00;;;14.00;96.40;;;;;;4590205;19;20473;-23
2023/05/08 02:16:14;;;;;;;15.77;11.07;;;14.00;96.40;;;;;;4590087;19;20416;-23
2023/05/08 02:17:47;;;;;;;16.03;11.60;;;14.00;96.40;;;;;;4429340;19;3134713;-23
2023/05/08 02:19:18;;;;;;;14.90;10.57;;;14.00;96.40;;;;;;4591534;19;20035;-23
2023/05/08 02:20:50;;;;;;;16.20;11.07;;;14.00;96.40;;;;;;4591246;19;20052;-23
2023/05/08 02:22:23;;;;;;;16.50;10.80;;;14.00;96.60;;;;;;4592527;19;20327;-23
2023/05/08 02:23:55;;;;;;;16.75;11.68;;;14.00;96.60;;;;;;4592236;19;20015;-23
2023/05/08 02:25:27;;;;;;;15.13;11.43;;;14.00;96.50;;;;;;4590635;19;20014;-23
2023/05/08 02:26:57;;;;;;;16.25;11.32;;;14.00;96.50;;;;;;4591952;19;20058;-23
2023/05/08 03:39:13;;;;;;;16.83;13.03;;;13.80;95.40;;;;;;4590498;19;20007;-23
2023/05/08 03:40:45;;;;;;;17.90;12.37;;;13.80;95.30;;;;;;4589494;19;20010;-23
2023/05/08 03:42:20;;;;;;;17.65;11.48;;;13.80;95.30;;;;;;4590540;19;20011;-23
2023/05/08 03:43:51;;;;;;;15.97;11.60;;;13.80;95.30;;;;;;4589803;19;20015;-23
2023/05/08 03:45:24;;;;;;;19.53;12.80;;;13.80;95.30;;;;;;4589498;19;20018;-23
2023/05/08 03:46:56;;;;;;;17.47;12.40;;;13.80;95.40;;;;;;4589622;19;20006;-23
2023/05/08 03:48:28;;;;;;;18.47;12.57;;;13.90;95.40;;;;;;4590625;19;20011;-23
2023/05/08 03:50:01;;;;;;;19.87;12.97;;;13.90;95.30;;;;;;4589924;19;20010;-23
2023/05/08 03:51:39;;;;;;;19.73;13.83;;;14.00;95.30;;;;;;4589361;19;20014;-23
2023/05/08 03:53:11;;;;;;;21.90;14.90;;;14.00;95.20;;;;;;4591404;19;20031;-23
2023/05/08 03:54:43;;;;;;;21.60;14.47;;;14.10;95.20;;;;;;4590606;19;20014;-23
2023/05/08 03:56:14;;;;;;;21.20;14.68;;;14.10;95.20;;;;;;4590434;19;20385;-23
2023/05/08 03:58:30;;;;;;;22.45;13.77;;;14.20;95.30;;;;;;4592313;19;20010;-23
2023/05/08 04:00:08;;;;;;;22.23;14.50;;;14.20;95.40;;;;;;4588386;19;20014;-23
2023/05/08 04:01:49;;;;;;;23.20;14.13;;;14.30;95.20;;;;;;4588079;19;20394;-23
2023/05/08 04:03:33;;;;;;;19.27;14.23;;;14.30;95.20;;;;;;4588280;19;20014;-23
2023/05/08 04:05:19;;;;;;;18.77;13.97;;;14.30;95.20;;;;;;4588124;19;20027;-23
2023/05/08 04:07:00;;;;;;;22.60;14.73;;;14.30;95.10;;;;;;4587986;19;20010;-23
2023/05/08 04:08:38;;;;;;;22.45;15.32;;;14.40;95.20;;;;;;4588729;19;20003;-23
2023/05/08 04:10:17;;;;;;;21.67;15.80;;;14.30;95.20;;;;;;4588576;19;20025;-23
2023/05/08 04:11:56;;;;;;;19.87;14.20;;;14.30;95.30;;;;;;4589460;19;20105;-23
2023/05/08 04:13:29;;;;;;;19.50;14.33;;;14.40;95.40;;;;;;4586262;19;20007;-23
2023/05/08 04:15:10;;;;;;;22.00;14.57;;;14.30;95.30;;;;;;4588850;19;20011;-23
2023/05/08 04:16:47;;;;;;;20.13;14.20;;;14.40;95.40;;;;;;4588299;19;20538;-23
2023/05/08 04:18:29;;;;;;;20.33;13.87;;;14.40;95.50;;;;;;4588079;19;20469;-23
2023/05/08 04:20:03;;;;;;;22.30;14.70;;;14.50;95.80;;;;;;4585432;19;20053;-23
2023/05/08 04:21:34;;;;;;;24.63;16.83;;;14.50;95.60;;;;;;4587721;19;20026;-23
2023/05/08 04:23:06;;;;;;;22.83;14.70;;;14.50;95.60;;;;;;4588028;19;20011;-23
2023/05/08 04:24:44;;;;;;;21.53;15.77;;;14.50;95.60;;;;;;4587402;19;20011;-23
2023/05/08 04:26:16;;;;;;;22.27;15.53;;;14.50;95.60;;;;;;4587579;19;20350;-23
2023/05/08 04:27:49;;;;;;;22.70;15.73;;;14.50;95.80;;;;;;4588385;19;20009;-23
2023/05/08 04:29:23;;;;;;;20.03;15.17;;;14.50;95.90;;;;;;4587820;19;20098;-23
2023/05/08 04:30:56;;;;;;;19.77;14.87;;;14.40;96.10;;;;;;4587489;19;20483;-23
2023/05/08 04:32:28;;;;;;;19.40;15.13;;;14.40;96.30;;;;;;4590627;19;20377;-23
2023/05/08 04:34:01;;;;;;;23.30;17.03;;;14.40;96.40;;;;;;4596733;19;20015;-22
2023/05/08 04:35:35;;;;;;;21.60;15.50;;;14.40;96.40;;;;;;4596915;19;20006;-23
2023/05/08 04:37:08;;;;;;;22.70;14.80;;;14.40;96.60;;;;;;4595469;19;20018;-23
2023/05/08 04:38:39;;;;;;;20.52;15.05;;;14.40;96.60;;;;;;4597540;19;20011;-23
2023/05/08 04:40:11;;;;;;;;;;;14.40;96.70;;;;;;4599009;19;20050;-23
2023/05/08 04:41:42;;;;;;;21.93;15.97;;;14.40;96.80;;;;;;4598356;19;19915;-23
2023/05/08 04:43:13;;;;;;;21.85;16.13;;;14.40;96.90;;;;;;4597480;19;20027;-23
2023/05/08 04:44:46;;;;;;;;;;;14.40;97.00;;;;;;4598439;19;20036;-23
2023/05/08 04:46:17;;;;;;;22.70;15.55;;;14.40;97.00;;;;;;4598596;19;19911;-23
2023/05/08 04:47:50;;;;;;;20.73;16.27;;;14.40;97.00;;;;;;4595928;19;20023;-23
2023/05/08 04:49:22;;;;;;;25.37;17.30;;;14.40;97.10;;;;;;4595770;19;20021;-23
2023/05/08 04:50:54;;;;;;;21.47;16.37;;;14.40;97.10;;;;;;4597828;19;20024;-23
2023/05/08 04:52:26;;;;;;;21.15;15.48;;;14.40;97.10;;;;;;4598069;19;20011;-24
2023/05/08 04:53:57;;;;;;;;;;;14.40;97.30;;;;;;4597979;19;20010;-23
2023/05/08 04:55:28;;;;;;;20.27;16.10;;;14.40;97.40;;;;;;4598090;19;19919;-23
2023/05/08 04:57:00;;;;;;;19.60;14.77;;;14.40;97.40;;;;;;4596985;19;20019;-23
2023/05/08 04:58:31;;;;;;;21.50;16.27;;;14.50;97.50;;;;;;4598689;19;20430;-23
2023/05/08 05:00:05;;;;;;;21.13;15.83;;;14.40;97.60;;;;;;4597827;19;20066;-23
2023/05/08 05:01:36;;;;;;;20.10;15.13;;;14.50;97.70;;;;;;4596733;19;20018;-23
2023/05/08 05:03:09;;;;;;;25.47;16.37;;;14.50;97.70;;;;;;4598064;19;20036;-23
2023/05/08 05:04:41;;;;;;;21.95;16.70;;;14.60;97.70;;;;;;4596844;19;20009;-23
2023/05/08 05:06:12;;;;;;;;;;;14.60;97.70;;;;;;4597696;19;20021;-23
2023/05/08 05:07:43;;;;;;;21.23;16.33;;;14.70;97.70;;;;;;4597700;19;19919;-23
2023/05/08 05:09:16;;;;;;;21.90;16.80;;;14.70;97.70;;;;;;4597159;19;20065;-23
2023/05/08 05:10:48;;;;;;;23.23;17.07;;;14.70;97.70;;;;;;4597686;19;20086;-23
2023/05/08 05:12:19;;;;;;;22.40;16.17;;;14.80;97.80;;;;;;4597962;19;20007;-23
2023/05/08 05:13:51;;;;;;;20.05;15.95;;;14.80;97.80;;;;;;4596792;19;20070;-23
2023/05/08 05:15:23;;;;;;;20.93;15.73;;;14.80;97.90;;;;;;4597102;19;20484;-23
2023/05/08 05:16:57;;;;;;;20.23;15.23;;;14.80;98.00;;;;;;4597356;19;20010;-23
2023/05/08 05:18:29;;;;;;;19.87;15.03;;;14.90;98.10;;;;;;4596838;19;20007;-23
2023/05/08 05:20:01;;;;;;;19.80;14.93;;;14.90;98.10;;;;;;4597273;19;20022;-23
2023/05/08 05:21:32;;;;;;;22.10;16.17;;;15.00;98.10;;;;;;4596946;19;20524;-23
2023/05/08 05:23:05;;;;;;;24.47;18.83;;;15.00;98.10;;;;;;4595225;19;20468;-23
2023/05/08 05:24:36;;;;;;;24.00;18.13;;;15.10;98.30;;;;;;4597288;19;20006;-23
2023/05/08 05:26:07;;;;;;;24.92;17.00;;;15.10;98.30;;;;;;4597795;19;20010;-23
2023/05/08 05:27:38;;;;;;;24.58;17.15;;;15.10;98.40;;;;;;4596880;19;20010;-23
2023/05/08 05:29:10;;;;;;;23.65;17.30;;;15.10;98.60;;;;;;4595176;19;20021;-23
2023/05/08 05:30:42;;;;;;;22.45;16.95;;;15.10;98.80;;;;;;4597375;19;20007;-24
2023/05/08 05:32:13;;;;;;;23.42;16.73;;;15.10;98.90;;;;;;4597975;19;20035;-23
2023/05/08 05:33:46;;;;;;;22.08;16.40;;;15.10;99.00;;;;;;4596962;19;20022;-23
2023/05/08 05:35:17;;;;;;;23.88;16.58;;;15.10;99.10;;;;;;4596604;19;20532;-23
2023/05/08 05:36:47;;;;;;;20.05;14.63;;;15.10;99.20;;;;;;4596331;19;20392;-23
2023/05/08 05:38:19;;;;;;;19.48;13.40;;;15.10;99.20;;;;;;4596338;19;20015;-23
2023/05/08 05:39:50;;;;;;;14.45;10.82;;;15.10;99.40;;;;;;4593249;19;20021;-23
2023/05/08 05:41:21;;;;;;;16.38;9.57;;;15.20;99.40;;;;;;4598118;19;20017;-23
2023/05/08 05:42:53;;;;;;;12.40;8.73;;;15.10;99.50;;;;;;4597537;19;20464;-23
2023/05/08 05:44:24;;;;;;;10.38;8.02;;;15.10;99.70;;;;;;4591662;19;20711;-23
2023/05/08 05:45:55;;;;;;;9.88;7.20;;;15.20;99.80;;;;;;4592607;19;20472;-23
2023/05/08 05:47:27;;;;;;;11.00;8.20;;;15.20;99.80;;;;;;4592747;19;20398;-23
2023/05/08 05:48:58;;;;;;;10.07;7.88;;;15.20;99.90;;;;;;4592443;19;20031;-23
2023/05/08 05:50:30;;;;;;;14.00;9.50;;;15.20;99.90;;;;;;4591143;19;20018;-23
2023/05/08 05:52:38;;;;;;;10.15;8.23;;;15.10;99.90;;;;;;4590546;19;20353;-23
2023/05/08 05:54:11;;;;;;;7.57;6.17;;;15.20;99.90;;;;;;4592819;19;20015;-23
2023/05/08 05:55:43;;;;;;;8.43;6.35;;;15.20;99.90;;;;;;4591569;19;20018;-23
2023/05/08 06:05:40;;;;;;;8.40;6.97;;;15.20;99.90;;;;;;4592495;19;19975;-23
2023/05/08 06:07:11;;;;;;;7.75;6.07;;;15.30;99.90;;;;;;4592804;19;20481;-23
2023/05/08 06:08:43;;;;;;;;;;;15.30;99.90;;;;;;4592404;19;20049;-23
2023/05/08 06:10:16;;;;;;;7.63;5.37;;;15.30;99.90;;;;;;4592550;19;19923;-23
2023/05/08 06:11:54;;;;;;;7.85;5.45;;;15.30;99.90;;;;;;4591594;19;20553;-23
2023/05/08 06:13:26;;;;;;;7.15;5.35;;;15.30;99.90;;;;;;4591601;19;20003;-23
2023/05/08 06:14:58;;;;;;;;;;;15.30;99.90;;;;;;4593608;19;20007;-23
2023/05/08 06:16:29;;;;;;;7.93;5.80;;;15.40;99.90;;;;;;4592958;19;19943;-23
2023/05/08 06:18:01;;;;;;;5.90;4.95;;;15.40;99.90;;;;;;4591034;19;20457;-23
2023/05/08 06:19:34;;;;;;;6.90;3.95;;;15.40;99.90;;;;;;4591926;19;20006;-23
2023/05/08 06:21:06;;;;;;;7.15;4.53;;;15.40;99.90;;;;;;4591473;19;20015;-23
2023/05/08 06:22:38;;;;;;;11.00;4.57;;;15.30;99.60;;;;;;4592331;19;20010;-23
2023/05/08 06:24:10;;;;;;;7.32;4.03;;;15.30;99.60;;;;;;4591150;19;20361;-23
2023/05/08 06:25:43;;;;;;;7.60;3.72;;;15.30;99.80;;;;;;4591896;19;20512;-23
2023/05/08 06:27:15;;;;;;;5.67;3.93;;;15.30;99.70;;;;;;4592274;19;20041;-23
2023/05/08 06:28:49;;;;;;;8.05;3.92;;;15.30;99.40;;;;;;4592984;19;20022;-23
2023/05/08 06:30:24;;;;;;;5.47;3.97;;;15.30;99.20;;;;;;4591378;19;20010;-23
2023/05/08 06:31:57;;;;;;;6.85;4.28;;;15.30;99.70;;;;;;4591039;19;20031;-23
2023/05/08 06:35:19;;;;;;;7.17;4.70;;;15.30;99.40;;;;;;4590855;19;20014;-23
2023/05/08 06:36:52;;;;;;;7.82;4.90;;;15.30;99.40;;;;;;4591944;19;20006;-23
2023/05/08 06:38:26;;;;;;;10.88;8.40;;;15.30;99.40;;;;;;4591925;19;20015;-23
2023/05/08 06:40:00;;;;;;;11.52;7.00;;;15.30;99.40;;;;;;4591833;19;20014;-23
2023/05/08 06:41:31;;;;;;;;;;;15.40;99.60;;;;;;4592899;19;20017;-24
2023/05/08 06:43:03;;;;;;;6.88;5.38;;;15.40;99.30;;;;;;4591252;19;19918;-23
2023/05/08 06:44:36;;;;;;;9.13;5.80;;;15.40;99.30;;;;;;4592296;19;20070;-23
2023/05/08 06:46:07;;;;;;;8.75;5.30;;;15.40;99.60;;;;;;4592004;19;20007;-23
2023/05/08 06:47:39;;;;;;;6.97;4.15;;;15.40;99.70;;;;;;4591701;19;20480;-23
2023/05/08 06:49:10;;;;;;;6.28;3.33;;;15.50;99.60;;;;;;4590904;19;20018;-23
2023/05/08 06:50:43;;;;;;;5.28;2.97;;;15.50;99.40;;;;;;4588889;19;20014;-23
2023/05/08 06:52:16;;;;;;;4.70;2.90;;;15.50;99.10;;;;;;4591422;19;20010;-23
2023/05/08 06:53:47;;;;;;;5.57;3.47;;;15.50;99.40;;;;;;4591501;19;20006;-23
2023/05/08 06:55:19;;;;;;;5.00;3.20;;;15.50;99.60;;;;;;4591859;19;20062;-23
2023/05/08 06:56:53;;;;;;;6.38;3.72;;;15.50;99.10;;;;;;4591523;19;20006;-23
2023/05/08 06:58:25;;;;;;;6.32;3.65;;;15.50;98.90;;;;;;4591405;19;20476;-23
2023/05/08 06:59:56;;;;;;;7.97;3.83;;;15.50;98.50;;;;;;4591926;19;20007;-23
2023/05/08 07:01:28;;;;;;;4.78;3.50;;;15.50;98.70;;;;;;4591204;19;20002;-23
2023/05/08 07:03:00;;;;;;;6.53;4.20;;;15.50;98.90;;;;;;4591028;19;20010;-23
2023/05/08 07:04:31;;;;;;;5.22;3.97;;;15.50;99.40;;;;;;4591276;19;20011;-23
2023/05/08 07:06:03;;;;;;;6.40;4.85;;;15.50;99.50;;;;;;4591830;19;20022;-23
2023/05/08 07:07:35;;;;;;;7.18;5.00;;;15.60;99.50;;;;;;4592409;19;20027;-23
2023/05/08 07:09:06;;;;;;;7.05;4.90;;;15.50;99.50;;;;;;4590116;19;20006;-23
2023/05/08 07:10:37;;;;;;;6.13;4.45;;;15.60;99.40;;;;;;4591392;19;20337;-23
2023/05/08 07:12:10;;;;;;;6.53;4.43;;;15.60;99.30;;;;;;4590708;19;20022;-23
2023/05/08 07:13:42;;;;;;;5.40;3.88;;;15.60;99.50;;;;;;4589608;19;20070;-23
2023/05/08 07:15:13;;;;;;;6.72;4.32;;;15.60;99.90;;;;;;4591129;19;20022;-23
2023/05/08 07:16:44;;;;;;;6.05;5.32;;;15.60;99.70;;;;;;4590076;19;20018;-23
2023/05/08 07:18:15;;;;;;;6.18;3.90;;;15.60;99.20;;;;;;4591295;19;20010;-23
2023/05/08 07:19:50;;;;;;;5.38;3.60;;;15.60;99.10;;;;;;4590887;19;20014;-23
2023/05/08 07:21:21;;;;;;;4.70;3.60;;;15.60;99.00;;;;;;4590035;19;20082;-23
2023/05/08 07:22:52;;;;;;;6.18;3.50;;;15.60;98.50;;;;;;4590497;19;20002;-23
2023/05/08 07:24:23;;;;;;;;;;;15.60;98.90;;;;;;4592306;19;20022;-23
2023/05/08 07:25:56;;;;;;;5.95;3.70;;;15.60;98.80;;;;;;4590767;19;19974;-23
2023/05/08 07:27:27;;;;;;;8.20;3.88;;;15.70;98.50;;;;;;4589723;19;20018;-23
2023/05/08 07:29:01;;;;;;;7.38;3.15;;;15.70;98.70;;;;;;4590978;19;20464;-23
2023/05/08 07:30:32;;;;;;;;;;;15.70;98.80;;;;;;4589728;19;20047;-23
2023/05/08 07:32:06;;;;;;;6.13;3.85;;;15.80;99.10;;;;;;4590256;19;19918;-23
2023/05/08 07:33:38;;;;;;;6.00;3.90;;;15.80;99.10;;;;;;4588634;19;20035;-24
2023/05/08 07:35:11;;;;;;;4.45;3.15;;;15.80;99.20;;;;;;4590442;19;20009;-23
2023/05/08 07:36:42;;;;;;;6.60;3.25;;;15.80;99.40;;;;;;4590736;19;20460;-23
2023/05/08 07:38:14;;;;;;;;;;;15.80;99.40;;;;;;4591635;19;20622;-23
2023/05/08 07:39:46;;;;;;;7.10;4.47;;;15.80;99.30;;;;;;4589777;19;19974;-23
2023/05/08 07:41:18;;;;;;;6.05;3.75;;;15.80;99.00;;;;;;4590919;19;20015;-23
2023/05/08 07:42:50;;;;;;;;;;;15.80;99.10;;;;;;4590832;19;20014;-23
2023/05/08 07:44:21;;;;;;;6.20;4.13;;;15.80;99.10;;;;;;4589321;19;19914;-23
2023/05/08 07:45:53;;;;;;;6.38;4.28;;;15.80;99.20;;;;;;4590934;19;20034;-23
2023/05/08 07:47:27;;;;;;;7.90;3.75;;;15.70;99.50;;;;;;4591760;19;20082;-23
2023/05/08 07:48:58;;;;;;;6.43;4.00;;;15.80;99.50;;;;;;4592507;19;20077;-23
2023/05/08 07:50:29;;;;;;;6.68;4.20;;;15.80;99.50;;;;;;4589454;19;20030;-23
2023/05/08 07:52:07;;;;;;;11.43;9.10;;;15.80;99.60;;;;;;4591510;19;20022;-23
2023/05/08 07:53:38;;;;;;;6.78;4.63;;;15.70;99.60;;;;;;4591901;19;20011;-23
2023/05/08 07:55:11;;;;;;;5.15;3.80;;;15.60;99.00;;;;;;4590575;19;20399;-23
2023/05/08 07:56:43;;;;;;;6.72;4.72;;;15.60;98.80;;;;;;4590334;19;20363;-23
2023/05/08 07:58:15;;;;;;;7.18;3.90;;;15.60;99.20;;;;;;4589351;19;20492;-23
2023/05/08 07:59:47;;;;;;;6.65;3.72;;;15.60;98.90;;;;;;4590243;19;20532;-23
2023/05/08 08:01:19;;;;;;;6.22;4.20;;;15.70;98.80;;;;;;4588922;19;20082;-23
2023/05/08 08:02:52;;;;;;;5.03;3.75;;;15.70;98.90;;;;;;4589865;19;20017;-23
2023/05/08 08:04:23;;;;;;;5.65;4.15;;;15.70;99.00;;;;;;4590242;19;20078;-24
2023/05/08 08:05:55;;;;;;;6.70;4.28;;;15.80;99.10;;;;;;4590257;19;20015;-23
2023/05/08 08:07:27;;;;;;;6.78;3.83;;;15.90;99.20;;;;;;4588485;19;20011;-23
2023/05/08 08:08:58;;;;;;;6.90;4.00;;;15.90;99.10;;;;;;4589859;19;20099;-23
2023/05/08 08:10:30;;;;;;;5.75;3.72;;;15.90;99.30;;;;;;4567583;19;20021;-23
2023/05/08 08:12:02;;;;;;;;;;;16.00;99.50;;;;;;4590035;19;20014;-24
2023/05/08 08:13:33;;;;;;;7.63;4.65;;;16.10;99.70;;;;;;4588006;19;20246;-23
2023/05/08 08:15:05;;;;;;;6.47;4.30;;;16.10;99.70;;;;;;4589833;19;20011;-23
2023/05/08 08:16:37;;;;;;;6.68;4.65;;;16.10;99.80;;;;;;4590300;19;20087;-23
2023/05/08 08:18:10;;;;;;;5.63;4.30;;;16.10;99.70;;;;;;4589880;19;20014;-23
2023/05/08 08:19:42;;;;;;;8.90;4.22;;;16.10;99.60;;;;;;4588652;19;20025;-23
2023/05/08 08:21:13;;;;;;;6.40;4.40;;;16.10;99.70;;;;;;4588913;19;20505;-23
2023/05/08 08:22:44;;;;;;;6.82;4.22;;;16.10;99.60;;;;;;4589484;19;20124;-23
2023/05/08 08:24:17;;;;;;;6.00;4.40;;;16.20;99.50;;;;;;4589499;19;20011;-23
2023/05/08 08:25:49;;;;;;;5.15;4.07;;;16.20;99.90;;;;;;4590117;19;20028;-23
2023/05/08 08:27:22;;;;;;;7.43;3.90;;;16.20;99.90;;;;;;4588821;19;20006;-23
2023/05/08 08:28:53;;;;;;;7.70;3.92;;;16.20;99.90;;;;;;4589691;19;20099;-24
2023/05/08 08:30:25;;;;;;;6.85;4.05;;;16.20;99.80;;;;;;4589419;19;20031;-23
2023/05/08 08:31:56;;;;;;;5.68;4.15;;;16.30;99.60;;;;;;4589716;19;20018;-24
2023/05/08 08:33:29;;;;;;;5.82;3.78;;;16.30;99.70;;;;;;4587821;19;20107;-23
2023/05/08 08:35:00;;;;;;;5.40;3.35;;;16.20;99.70;;;;;;4589224;19;20006;-23
2023/05/08 08:36:34;;;;;;;7.97;3.97;;;16.30;99.30;;;;;;4589392;19;20017;-23
2023/05/08 08:38:06;;;;;;;6.47;3.58;;;16.30;98.90;;;;;;4589896;19;20388;-23
2023/05/08 08:39:37;;;;;;;3.78;3.00;;;16.30;98.60;;;;;;4589147;19;20032;-24
2023/05/08 08:41:12;;;;;;;4.80;3.05;;;16.30;98.60;;;;;;4589413;19;20034;-23
2023/05/08 08:42:46;;;;;;;6.88;3.53;;;16.30;98.50;;;;;;4587794;19;20477;-23
2023/05/08 08:44:17;;;;;;;4.53;3.30;;;16.30;98.60;;;;;;4588462;19;20473;-23
2023/05/08 08:45:49;;;;;;;5.50;3.15;;;16.30;98.90;;;;;;4589816;19;20006;-23
2023/05/08 08:47:29;;;;;;;4.63;2.97;;;16.30;99.00;;;;;;4589608;19;20010;-23
2023/05/08 08:49:03;;;;;;;5.65;3.42;;;16.30;99.20;;;;;;4588287;19;20011;-23
2023/05/08 08:50:34;;;;;;;5.47;3.22;;;16.30;98.80;;;;;;4589486;19;20337;-23
2023/05/08 08:52:36;;;;;;;4.70;2.75;;;16.30;98.80;;;;;;4590107;19;20445;-23
2023/05/08 08:54:13;;;;;;;4.70;2.90;;;16.30;98.80;;;;;;4587523;19;20014;-23
2023/05/08 08:55:45;;;;;;;4.40;2.80;;;16.30;98.50;;;;;;4586864;19;20070;-23
2023/05/08 08:57:16;;;;;;;3.92;3.00;;;16.20;98.30;;;;;;4587131;19;20361;-23
2023/05/08 08:58:58;;;;;;;8.10;3.10;;;16.20;98.30;;;;;;4587317;19;20477;-24
2023/05/08 09:00:32;;;;;;;5.82;3.10;;;16.20;98.00;;;;;;4588138;19;20018;-23
2023/05/08 09:02:10;;;;;;;5.28;3.00;;;16.20;97.20;;;;;;4587378;19;20012;-24
2023/05/08 09:04:02;;;;;;;4.88;3.38;;;16.20;97.40;;;;;;4587252;19;20022;-23
2023/05/08 09:05:33;;;;;;;;;;;16.20;97.50;;;;;;4587816;19;20031;-24
2023/05/08 09:07:06;;;;;;;5.28;2.90;;;16.20;97.80;;;;;;4587003;19;19931;-23
2023/05/08 09:08:39;;;;;;;4.25;2.72;;;16.30;97.80;;;;;;4587306;19;20023;-23
2023/05/08 09:10:14;;;;;;;5.13;2.75;;;16.30;97.90;;;;;;4587159;19;20015;-23
2023/05/08 09:11:46;;;;;;;6.95;3.03;;;16.30;97.90;;;;;;4586931;19;20044;-23
2023/05/08 09:13:18;;;;;;;3.88;3.20;;;16.30;97.90;;;;;;4586342;19;20018;-23
2023/05/08 09:14:50;;;;;;;7.07;3.35;;;16.30;97.80;;;;;;4587029;19;20339;-23
2023/05/08 09:16:22;;;;;;;;;;;16.30;97.90;;;;;;4587681;19;20494;-23
2023/05/08 09:17:53;;;;;;;4.07;2.78;;;16.30;97.90;;;;;;4586407;19;19964;-23
2023/05/08 09:19:25;;;;;;;4.88;2.95;;;16.30;97.80;;;;;;4587965;19;20070;-23
2023/05/08 09:21:00;;;;;;;5.70;4.28;;;16.30;97.50;;;;;;4592240;19;20007;-23
2023/05/08 09:22:31;;;;;;;4.97;3.97;;;16.30;97.40;;;;;;4591411;19;20082;-23
2023/05/08 09:24:03;;;;;;;5.35;3.30;;;16.20;97.30;;;;;;4591865;19;20014;-23
2023/05/08 09:25:45;;;;;;;5.25;3.00;;;16.20;97.50;;;;;;4591562;19;20002;-23
2023/05/08 09:27:20;;;;;;;4.75;2.92;;;16.20;97.40;;;;;;4592038;19;20006;-23